createdAt,value
2022-10-18T00:00:20.263Z,3.45
2022-10-18T00:02:47.319Z,3.95
2022-10-18T00:05:14.316Z,4.45
2022-10-18T00:07:41.272Z,3.88
2022-10-18T00:10:09.090Z,4.15
2022-10-18T00:12:37.284Z,7.00
2022-10-18T00:15:07.185Z,5.10
2022-10-18T00:17:35.856Z,3.60
2022-10-18T00:20:02.840Z,4.38
2022-10-18T00:22:30.117Z,3.20
2022-10-18T00:24:57.354Z,3.72
2022-10-18T00:27:24.343Z,3.80
2022-10-18T00:29:54.259Z,3.63
2022-10-18T00:32:21.352Z,3.58
2022-10-18T00:34:48.893Z,3.58
2022-10-18T00:37:16.234Z,2.97
2022-10-18T00:39:43.506Z,3.78
2022-10-18T00:42:21.814Z,3.65
2022-10-18T00:45:22.396Z,3.80
2022-10-18T00:47:55.562Z,4.78
2022-10-18T00:50:23.651Z,3.33
2022-10-18T00:52:55.761Z,3.53
2022-10-18T00:55:23.062Z,2.92
2022-10-18T00:57:50.513Z,3.67
2022-10-18T01:00:18.556Z,4.25
2022-10-18T01:02:46.911Z,4.45
2022-10-18T01:05:16.869Z,3.22
2022-10-18T01:08:28.660Z,3.30
2022-10-18T01:14:21.186Z,3.72
2022-10-18T01:17:15.458Z,3.55
2022-10-18T01:20:19.101Z,4.00
2022-10-18T01:22:55.225Z,4.35
2022-10-18T01:25:40.492Z,3.38
2022-10-18T01:28:49.382Z,3.33
2022-10-18T01:31:33.107Z,3.22
2022-10-18T01:34:04.224Z,3.08
2022-10-18T01:36:34.255Z,3.83
2022-10-18T01:39:06.962Z,2.90
2022-10-18T01:41:37.859Z,3.40
2022-10-18T01:44:08.541Z,2.95
2022-10-18T01:46:37.546Z,3.00
2022-10-18T01:49:05.238Z,4.05
2022-10-18T01:51:33.197Z,3.40
2022-10-18T01:54:00.576Z,3.80
2022-10-18T01:57:11.362Z,3.03
2022-10-18T02:00:26.353Z,3.72
2022-10-18T02:03:23.735Z,3.97
2022-10-18T02:06:02.236Z,4.35
2022-10-18T02:08:35.275Z,4.72
2022-10-18T02:11:10.850Z,4.60
2022-10-18T02:13:42.348Z,4.60
2022-10-18T02:16:17.208Z,4.20
2022-10-18T02:18:52.200Z,3.75
2022-10-18T02:21:21.501Z,3.50
2022-10-18T02:23:49.165Z,4.28
2022-10-18T02:26:17.090Z,4.63
2022-10-18T02:28:44.846Z,4.55
2022-10-18T02:31:38.232Z,3.90
2022-10-18T02:34:19.984Z,4.72
2022-10-18T02:36:52.228Z,4.55
2022-10-18T02:39:34.457Z,3.78
2022-10-18T02:42:06.810Z,5.45
2022-10-18T02:44:37.811Z,4.65
2022-10-18T02:47:06.352Z,6.28
2022-10-18T02:49:33.315Z,4.80
2022-10-18T02:52:00.348Z,4.65
2022-10-18T02:54:27.356Z,4.53
2022-10-18T02:56:54.366Z,4.70
2022-10-18T02:59:21.241Z,4.15
2022-10-18T03:01:48.187Z,5.20
2022-10-18T03:04:15.494Z,4.38
2022-10-18T03:06:42.473Z,5.20
2022-10-18T03:09:10.178Z,5.05
2022-10-18T03:11:37.059Z,6.22
2022-10-18T03:14:04.036Z,4.47
2022-10-18T03:16:31.610Z,4.78
2022-10-18T03:18:58.581Z,5.05
2022-10-18T03:21:25.575Z,5.05
2022-10-18T03:23:52.492Z,5.10
2022-10-18T03:26:19.413Z,5.50
2022-10-18T03:28:46.344Z,5.07
2022-10-18T03:31:13.374Z,7.13
2022-10-18T03:33:40.315Z,4.75
2022-10-18T03:36:07.324Z,4.55
2022-10-18T03:38:34.216Z,4.55
2022-10-18T03:41:01.145Z,4.00
2022-10-18T03:43:28.062Z,4.18
2022-10-18T03:45:54.999Z,4.82
2022-10-18T03:48:21.982Z,5.10
2022-10-18T03:50:48.893Z,4.82
2022-10-18T03:53:15.843Z,5.20
2022-10-18T03:55:42.787Z,5.38
2022-10-18T03:58:09.809Z,4.95
2022-10-18T04:00:36.750Z,6.10
2022-10-18T04:03:03.989Z,8.13
2022-10-18T04:05:31.574Z,7.03
2022-10-18T04:07:58.695Z,6.63
2022-10-18T04:10:26.179Z,6.25
2022-10-18T04:12:53.232Z,8.98
2022-10-18T04:15:20.211Z,6.38
2022-10-18T04:17:47.211Z,5.72
2022-10-18T04:20:14.341Z,7.43
2022-10-18T04:22:41.347Z,8.10
2022-10-18T04:25:08.461Z,6.78
2022-10-18T04:27:36.051Z,8.73
2022-10-18T04:30:03.101Z,8.90
2022-10-18T04:32:30.053Z,6.63
2022-10-18T04:34:56.995Z,7.15
2022-10-18T04:37:23.929Z,7.63
2022-10-18T04:39:53.530Z,7.00
2022-10-18T04:42:21.514Z,7.65
2022-10-18T04:44:48.790Z,6.65
2022-10-18T04:47:16.301Z,6.35
2022-10-18T04:49:43.308Z,6.63
2022-10-18T04:52:10.512Z,5.10
2022-10-18T04:54:37.612Z,5.13
2022-10-18T04:57:04.839Z,6.15
2022-10-18T04:59:31.948Z,7.13
2022-10-18T05:01:58.927Z,7.72
2022-10-18T05:04:25.957Z,7.82
2022-10-18T05:06:52.955Z,7.57
2022-10-18T05:09:22.409Z,8.85
2022-10-18T05:11:49.392Z,8.98
2022-10-18T05:14:19.150Z,10.57
2022-10-18T05:16:46.365Z,10.32
2022-10-18T05:19:13.420Z,13.00
2022-10-18T05:21:40.600Z,13.13
2022-10-18T05:24:07.779Z,7.20
2022-10-18T05:26:34.669Z,7.07
2022-10-18T05:29:01.977Z,9.07
2022-10-18T05:31:29.215Z,6.53
2022-10-18T05:33:56.298Z,7.65
2022-10-18T05:36:23.369Z,6.43
2022-10-18T05:38:50.331Z,6.07
2022-10-18T05:41:17.212Z,14.38
2022-10-18T05:43:44.209Z,10.52
2022-10-18T05:46:15.736Z,7.22
2022-10-18T05:48:44.799Z,6.70
2022-10-18T05:51:12.019Z,8.93
2022-10-18T05:53:39.243Z,7.97
2022-10-18T05:56:07.412Z,10.70
2022-10-18T05:58:34.516Z,13.02
2022-10-18T06:01:03.296Z,14.07
2022-10-18T06:03:33.052Z,14.13
2022-10-18T06:06:02.093Z,14.60
2022-10-18T06:08:29.294Z,12.82
2022-10-18T06:10:56.346Z,14.10
2022-10-18T06:13:23.824Z,13.27
2022-10-18T06:15:51.154Z,13.13
2022-10-18T06:18:18.044Z,11.95
2022-10-18T06:20:44.933Z,11.65
2022-10-18T06:23:11.943Z,11.43
2022-10-18T06:25:38.890Z,12.85
2022-10-18T06:28:07.950Z,10.38
2022-10-18T06:33:04.330Z,9.77
2022-10-18T06:35:31.446Z,9.15
2022-10-18T06:37:58.523Z,9.60
2022-10-18T06:40:25.471Z,11.95
2022-10-18T06:43:00.126Z,12.52
2022-10-18T06:45:33.733Z,14.55
2022-10-18T06:48:00.694Z,15.30
2022-10-18T06:50:27.782Z,12.93
2022-10-18T06:52:54.798Z,11.70
2022-10-18T06:55:21.732Z,11.35
2022-10-18T06:57:48.845Z,10.82
2022-10-18T07:00:16.046Z,12.23
2022-10-18T07:02:43.040Z,9.80
2022-10-18T07:05:11.390Z,9.98
2022-10-18T07:07:38.760Z,11.07
2022-10-18T07:10:07.131Z,9.20
2022-10-18T07:12:34.317Z,10.13
2022-10-18T07:15:03.484Z,11.05
2022-10-18T07:17:34.106Z,10.48
2022-10-18T07:20:04.527Z,9.07
2022-10-18T07:22:31.490Z,9.63
2022-10-18T07:24:58.553Z,8.48
2022-10-18T07:27:25.514Z,9.15
2022-10-18T07:29:52.491Z,8.57
2022-10-18T07:32:19.467Z,9.60
2022-10-18T07:34:46.390Z,9.15
2022-10-18T07:37:13.413Z,9.80
2022-10-18T07:39:40.281Z,9.52
2022-10-18T07:42:07.170Z,9.32
2022-10-18T07:44:34.108Z,9.88
2022-10-18T07:47:01.048Z,9.55
2022-10-18T07:49:28.126Z,9.13
2022-10-18T07:51:55.054Z,9.60
2022-10-18T07:54:22.669Z,9.38
2022-10-18T07:56:49.584Z,8.38
2022-10-18T07:59:16.525Z,9.60
2022-10-18T08:01:43.693Z,9.85
2022-10-18T08:04:15.491Z,9.70
2022-10-18T08:06:43.804Z,8.27
2022-10-18T08:09:10.672Z,9.93
2022-10-18T08:11:37.798Z,8.65
2022-10-18T08:14:04.873Z,9.10
2022-10-18T08:18:59.754Z,11.45
2022-10-18T08:21:27.018Z,11.10
2022-10-18T08:23:54.076Z,11.30
2022-10-18T08:26:23.228Z,10.38
2022-10-18T08:28:58.345Z,10.70
2022-10-18T08:31:31.221Z,10.83
2022-10-18T08:33:58.358Z,24.25
2022-10-18T08:36:25.460Z,21.80
2022-10-18T08:38:52.707Z,11.90
2022-10-18T08:41:46.419Z,11.60
2022-10-18T08:44:25.256Z,10.35
2022-10-18T08:47:06.048Z,11.55
2022-10-18T08:49:48.330Z,11.05
2022-10-18T08:52:37.443Z,9.75
2022-10-18T08:55:23.115Z,11.82
2022-10-18T08:57:51.362Z,11.45
2022-10-18T09:00:23.434Z,10.73
2022-10-18T09:03:13.740Z,11.38
2022-10-18T09:05:50.354Z,9.52
2022-10-18T09:08:41.203Z,9.30
2022-10-18T09:11:35.124Z,9.98
2022-10-18T09:15:04.714Z,11.10
2022-10-18T09:17:57.560Z,24.98
2022-10-18T09:20:28.759Z,10.60
2022-10-18T09:25:54.106Z,9.80
2022-10-18T09:29:03.426Z,9.40
2022-10-18T09:31:46.689Z,9.27
2022-10-18T09:34:51.075Z,9.57
2022-10-18T09:37:20.798Z,9.70
2022-10-18T09:39:50.347Z,9.52
2022-10-18T09:42:34.690Z,10.13
2022-10-18T09:45:32.068Z,10.48
2022-10-18T09:48:19.278Z,10.40
2022-10-18T09:50:55.211Z,8.93
2022-10-18T09:53:57.522Z,8.60
2022-10-18T09:56:30.020Z,8.38
2022-10-18T09:58:57.291Z,10.07
2022-10-18T10:01:26.770Z,9.45
2022-10-18T10:03:53.988Z,8.30
2022-10-18T10:06:32.331Z,7.20
2022-10-18T10:09:08.333Z,9.07
2022-10-18T10:11:53.738Z,7.50
2022-10-18T10:14:26.788Z,7.03
2022-10-18T10:17:07.222Z,8.80
2022-10-18T10:20:25.128Z,8.02
2022-10-18T10:22:52.913Z,6.65
2022-10-18T10:25:32.991Z,7.38
2022-10-18T10:28:05.345Z,6.78
2022-10-18T10:30:35.852Z,7.10
2022-10-18T10:33:03.602Z,7.63
2022-10-18T10:35:56.341Z,6.75
2022-10-18T10:38:25.778Z,5.72
2022-10-18T10:40:53.899Z,6.50
2022-10-18T10:43:39.753Z,6.82
2022-10-18T10:46:11.972Z,6.00
2022-10-18T10:49:14.175Z,5.93
2022-10-18T10:51:43.941Z,6.10
2022-10-18T10:54:16.981Z,5.18
2022-10-18T10:57:08.681Z,4.80
2022-10-18T11:00:04.989Z,5.00
2022-10-18T11:02:34.831Z,4.68
2022-10-18T11:05:23.292Z,7.60
2022-10-18T11:07:52.903Z,5.70
2022-10-18T11:10:24.080Z,4.43
2022-10-18T11:13:28.500Z,3.83
2022-10-18T11:16:06.111Z,4.63
2022-10-18T11:18:35.611Z,3.45
2022-10-18T11:21:11.566Z,4.10
2022-10-18T11:23:40.744Z,3.92
2022-10-18T11:26:52.089Z,6.63
2022-10-18T11:29:46.365Z,3.95
2022-10-18T11:32:54.764Z,3.33
2022-10-18T11:35:38.948Z,4.50
2022-10-18T11:38:49.973Z,3.50
2022-10-18T11:44:03.692Z,3.63
2022-10-18T11:46:49.440Z,2.75
2022-10-18T11:49:35.217Z,3.70
2022-10-18T11:52:48.242Z,11.18
2022-10-18T11:55:47.642Z,4.50
2022-10-18T11:58:57.247Z,1.80
2022-10-18T12:01:47.601Z,2.88
2022-10-18T12:04:18.922Z,2.72
2022-10-18T12:06:49.457Z,2.42
2022-10-18T12:12:21.541Z,2.10
2022-10-18T12:14:58.204Z,2.25
2022-10-18T12:17:51.054Z,3.88
2022-10-18T12:20:40.495Z,4.18
2022-10-18T12:23:15.502Z,1.98
2022-10-18T12:25:48.196Z,1.85
2022-10-18T12:28:52.664Z,2.70
2022-10-18T12:31:34.600Z,1.65
2022-10-18T12:34:10.912Z,1.90
2022-10-18T12:37:18.325Z,2.20
2022-10-18T12:40:09.413Z,1.92
2022-10-18T12:42:43.189Z,1.92
2022-10-18T12:45:50.986Z,1.75
2022-10-18T12:48:33.982Z,1.38
2022-10-18T12:51:17.613Z,2.17
2022-10-18T12:53:47.415Z,2.65
2022-10-18T12:56:51.009Z,2.40
2022-10-18T12:59:41.612Z,1.10
2022-10-18T13:04:38.458Z,2.05
2022-10-18T13:07:41.093Z,2.78
2022-10-18T13:10:35.287Z,1.80
2022-10-18T13:13:39.095Z,1.80
2022-10-18T13:16:22.740Z,1.35
2022-10-18T13:19:38.937Z,1.30
2022-10-18T13:22:42.861Z,1.40
2022-10-18T13:26:00.611Z,2.75
2022-10-18T13:28:56.636Z,2.53
2022-10-18T13:31:40.407Z,1.45
2022-10-18T13:34:40.898Z,1.70
2022-10-18T13:40:22.765Z,1.50
2022-10-18T13:42:49.898Z,3.53
2022-10-18T13:45:55.800Z,1.98
2022-10-18T13:48:52.810Z,2.95
2022-10-18T13:52:01.547Z,2.90
2022-10-18T13:55:01.594Z,1.75
2022-10-18T13:58:14.096Z,1.77
2022-10-18T14:01:19.599Z,3.85
2022-10-18T14:04:17.247Z,4.20
2022-10-18T14:06:47.522Z,3.22
2022-10-18T14:12:52.381Z,2.78
2022-10-18T14:15:34.927Z,2.47
2022-10-18T14:18:19.055Z,1.48
2022-10-18T14:21:14.170Z,2.67
2022-10-18T14:23:44.918Z,3.20
2022-10-18T14:26:21.149Z,3.28
2022-10-18T14:29:22.763Z,3.38
2022-10-18T14:31:54.471Z,1.95
2022-10-18T14:34:22.193Z,1.52
2022-10-18T14:36:50.040Z,2.60
2022-10-18T14:39:24.453Z,2.22
2022-10-18T14:41:54.205Z,4.38
2022-10-18T14:44:27.296Z,4.03
2022-10-18T14:47:15.051Z,2.95
2022-10-18T14:49:46.274Z,2.83
2022-10-18T14:52:21.959Z,2.17
2022-10-18T14:54:51.142Z,2.60
2022-10-18T14:57:37.800Z,2.58
2022-10-18T15:00:09.019Z,2.95
2022-10-18T15:02:38.772Z,1.95
2022-10-18T15:07:52.691Z,2.75
2022-10-18T15:10:24.720Z,1.58
2022-10-18T15:13:09.200Z,3.10
2022-10-18T15:15:38.096Z,2.10
2022-10-18T15:18:06.788Z,3.85
2022-10-18T15:20:43.030Z,1.98
2022-10-18T15:23:25.973Z,2.40
2022-10-18T15:26:02.151Z,2.40
2022-10-18T15:28:37.882Z,2.00
2022-10-18T15:31:05.534Z,3.60
2022-10-18T15:33:36.219Z,4.80
2022-10-18T15:36:26.099Z,3.72
2022-10-18T15:38:53.173Z,4.40
2022-10-18T15:41:52.731Z,5.20
2022-10-18T15:44:34.762Z,5.57
2022-10-18T15:47:21.327Z,4.28
2022-10-18T15:49:56.761Z,5.50
2022-10-18T15:52:39.328Z,3.22
2022-10-18T15:55:52.480Z,3.97
2022-10-18T15:58:26.120Z,2.50
2022-10-18T16:00:57.776Z,3.53
2022-10-18T16:03:25.461Z,4.95
2022-10-18T16:06:07.395Z,2.70
2022-10-18T16:08:41.119Z,5.75
2022-10-18T16:11:16.600Z,2.80
2022-10-18T16:13:44.242Z,2.92
2022-10-18T16:16:17.257Z,3.03
2022-10-18T16:18:44.322Z,3.75
2022-10-18T16:21:38.200Z,3.90
2022-10-18T16:24:05.938Z,3.40
2022-10-18T16:26:33.521Z,8.30
2022-10-18T16:29:01.002Z,3.95
2022-10-18T16:31:30.877Z,3.28
2022-10-18T16:33:58.779Z,3.80
2022-10-18T16:36:29.270Z,4.15
2022-10-18T16:38:58.018Z,3.50
2022-10-18T16:41:24.972Z,4.00
2022-10-18T16:43:52.354Z,5.30
2022-10-18T16:46:21.948Z,3.63
2022-10-18T16:48:51.027Z,5.35
2022-10-18T16:51:18.139Z,4.55
2022-10-18T16:53:45.403Z,4.55
2022-10-18T16:56:18.175Z,4.07
2022-10-18T16:58:46.180Z,3.25
2022-10-18T17:01:19.040Z,4.72
2022-10-18T17:03:46.823Z,4.00
2022-10-18T17:06:22.977Z,4.20
2022-10-18T17:08:51.172Z,5.15
2022-10-18T17:11:19.272Z,4.63
2022-10-18T17:13:46.253Z,3.88
2022-10-18T17:16:26.767Z,3.83
2022-10-18T17:18:53.890Z,3.50
2022-10-18T17:21:21.359Z,2.85
2022-10-18T17:23:48.910Z,2.35
2022-10-18T17:26:28.936Z,3.28
2022-10-18T17:29:00.259Z,4.43
2022-10-18T17:31:28.573Z,5.07
2022-10-18T17:33:55.689Z,3.20
2022-10-18T17:36:22.710Z,3.47
2022-10-18T17:38:53.630Z,3.80
2022-10-18T17:41:20.904Z,3.95
2022-10-18T17:43:48.547Z,4.25
2022-10-18T17:46:17.980Z,5.05
2022-10-18T17:48:45.573Z,3.42
2022-10-18T17:51:15.482Z,3.15
2022-10-18T17:53:42.809Z,4.18
2022-10-18T17:56:11.267Z,4.35
2022-10-18T17:58:38.525Z,2.90
2022-10-18T18:01:17.277Z,3.20
2022-10-18T18:03:44.530Z,3.70
2022-10-18T18:06:23.304Z,3.85
2022-10-18T18:08:50.767Z,4.55
2022-10-18T18:11:18.191Z,5.80
2022-10-18T18:13:45.356Z,3.67
2022-10-18T18:16:30.580Z,3.25
2022-10-18T18:18:58.976Z,6.20
2022-10-18T18:21:26.901Z,4.63
2022-10-18T18:23:54.742Z,3.35
2022-10-18T18:26:22.678Z,3.65
2022-10-18T18:28:49.815Z,3.28
2022-10-18T18:31:25.059Z,3.33
2022-10-18T18:33:53.530Z,4.63
2022-10-18T18:36:20.805Z,3.58
2022-10-18T18:38:48.463Z,3.33
2022-10-18T18:41:20.973Z,3.53
2022-10-18T18:43:54.247Z,3.92
2022-10-18T18:46:22.581Z,5.15
2022-10-18T18:48:49.834Z,4.75
2022-10-18T18:51:19.297Z,3.90
2022-10-18T18:53:47.398Z,4.13
2022-10-18T18:56:17.868Z,4.35
2022-10-18T18:58:46.132Z,3.97
2022-10-18T19:01:33.066Z,3.45
2022-10-18T19:04:00.525Z,3.53
2022-10-18T19:06:30.178Z,3.85
2022-10-18T19:09:01.600Z,3.67
2022-10-18T19:11:32.497Z,3.40
2022-10-18T19:14:00.943Z,5.28
2022-10-18T19:16:39.595Z,4.15
2022-10-18T19:19:17.715Z,4.65
2022-10-18T19:21:46.990Z,3.70
2022-10-18T19:24:14.126Z,4.63
2022-10-18T19:27:05.942Z,4.07
2022-10-18T19:29:35.091Z,4.50
2022-10-18T19:32:08.686Z,4.95
2022-10-18T19:34:35.975Z,3.80
2022-10-18T19:37:03.487Z,5.60
2022-10-18T19:39:32.515Z,4.00
2022-10-18T19:42:03.460Z,4.88
2022-10-18T19:44:32.179Z,4.50
2022-10-18T19:46:59.607Z,4.65
2022-10-18T19:49:28.726Z,4.53
2022-10-18T19:51:56.631Z,4.47
2022-10-18T19:54:24.186Z,3.85
2022-10-18T19:56:51.238Z,3.72
2022-10-18T19:59:18.481Z,4.45
2022-10-18T20:01:45.977Z,4.90
2022-10-18T20:04:13.545Z,3.97
2022-10-18T20:06:41.040Z,5.35
2022-10-18T20:09:11.532Z,4.50
2022-10-18T20:11:40.934Z,4.18
2022-10-18T20:14:09.813Z,5.07
2022-10-18T20:16:37.091Z,4.85
2022-10-18T20:19:07.140Z,4.35
2022-10-18T20:21:36.089Z,4.30
2022-10-18T20:24:05.054Z,4.15
2022-10-18T20:26:32.233Z,5.10
2022-10-18T20:29:00.053Z,4.55
2022-10-18T20:31:32.086Z,4.47
2022-10-18T20:34:01.737Z,4.35
2022-10-18T20:36:30.793Z,4.28
2022-10-18T20:38:57.843Z,3.45
2022-10-18T20:41:30.526Z,3.85
2022-10-18T20:44:02.711Z,5.32
2022-10-18T20:46:34.979Z,5.13
2022-10-18T20:49:02.642Z,4.07
2022-10-18T20:51:29.575Z,4.80
2022-10-18T20:53:56.730Z,4.50
2022-10-18T20:56:27.331Z,5.15
2022-10-18T20:58:56.249Z,5.18
2022-10-18T21:01:26.738Z,4.93
2022-10-18T21:03:55.937Z,5.20
2022-10-18T21:06:33.892Z,7.30
2022-10-18T21:09:04.681Z,4.70
2022-10-18T21:11:34.982Z,3.50
2022-10-18T21:14:03.053Z,3.08
2022-10-18T21:16:34.513Z,3.45
2022-10-18T21:19:10.735Z,3.22
2022-10-18T21:21:37.548Z,3.28
2022-10-18T21:24:07.152Z,3.80
2022-10-18T21:26:35.821Z,3.53
2022-10-18T21:29:03.918Z,3.22
2022-10-18T21:31:33.028Z,3.95
2022-10-18T21:34:02.282Z,4.13
2022-10-18T21:36:36.280Z,3.28
2022-10-18T21:39:05.554Z,3.20
2022-10-18T21:41:32.599Z,3.33
2022-10-18T21:43:59.824Z,3.05
2022-10-18T21:46:27.153Z,3.25
2022-10-18T21:48:55.993Z,4.07
2022-10-18T21:51:25.327Z,3.60
2022-10-18T21:53:55.278Z,3.13
2022-10-18T21:56:33.945Z,3.72
2022-10-18T21:59:02.001Z,3.03
2022-10-18T22:01:37.063Z,3.72
2022-10-18T22:04:06.866Z,2.88
2022-10-18T22:09:10.140Z,2.72
2022-10-18T22:11:49.174Z,3.58
2022-10-18T22:14:16.191Z,2.85
2022-10-18T22:16:43.271Z,2.95
2022-10-18T22:19:12.754Z,3.17
2022-10-18T22:21:40.037Z,3.88
2022-10-18T22:24:08.940Z,5.82
2022-10-18T22:26:38.248Z,3.15
2022-10-18T22:29:08.921Z,3.45
2022-10-18T22:31:39.446Z,3.58
2022-10-18T22:34:10.471Z,3.75
2022-10-18T22:36:37.774Z,2.85
2022-10-18T22:39:05.622Z,3.63
2022-10-18T22:41:33.384Z,4.10
2022-10-18T22:44:03.433Z,3.50
2022-10-18T22:46:31.718Z,2.92
2022-10-18T22:48:58.784Z,4.90
2022-10-18T22:51:25.801Z,3.30
2022-10-18T22:53:53.143Z,2.97
2022-10-18T22:56:22.900Z,3.13
2022-10-18T22:58:49.993Z,3.00
2022-10-18T23:01:19.949Z,2.95
2022-10-18T23:03:46.939Z,2.85
2022-10-18T23:06:35.879Z,2.45
2022-10-18T23:09:08.484Z,3.10
2022-10-18T23:11:36.776Z,2.90
2022-10-18T23:14:06.065Z,2.65
2022-10-18T23:16:33.495Z,3.15
2022-10-18T23:19:00.572Z,3.17
2022-10-18T23:21:28.929Z,3.10
2022-10-18T23:23:57.053Z,3.10
2022-10-18T23:26:26.296Z,2.35
2022-10-18T23:28:53.937Z,2.47
2022-10-18T23:31:24.006Z,2.60
2022-10-18T23:33:52.888Z,3.08
2022-10-18T23:36:20.239Z,3.30
2022-10-18T23:38:47.270Z,2.92
2022-10-18T23:41:15.548Z,2.97
2022-10-18T23:43:43.647Z,2.47
2022-10-18T23:46:11.860Z,3.17
2022-10-18T23:48:38.941Z,2.55
2022-10-18T23:51:06.660Z,2.80
2022-10-18T23:53:34.096Z,2.55
2022-10-18T23:56:09.593Z,2.53
2022-10-18T23:58:36.939Z,2.53
